Time;durP1;ratioP1;P1;durP2;ratioP2;P2;SDS_P1;SDS_P2;PMS_P1;PMS_P2;Temp;Humidity;BMP_temperature;BMP_pressure;BME280_temperature;BME280_humidity;BME280_pressure;Samples;Min_cycle;Max_cycle;Signal;HPM_P1;HPM_P2
2023/04/11 00:02:59;;;;;;;5.70;4.00;;;;;;;;;;107838;272;42561;-29
2023/04/11 00:05:36;;;;;;;5.70;4.20;;;;;;;;;;107838;279;38800;-29
2023/04/11 00:08:11;;;;;;;6.20;4.20;;;;;;;;;;107795;279;39795;-29
2023/04/11 00:10:46;;;;;;;5.50;3.80;;;;;;;;;;107825;275;42866;-29
2023/04/11 00:13:22;;;;;;;5.50;3.90;;;;;;;;;;107828;279;42187;-29
2023/04/11 00:16:01;;;;;;;5.40;3.90;;;;;;;;;;107837;272;38908;-29
2023/04/11 00:18:38;;;;;;;5.80;3.90;;;;;;;;;;107855;279;39842;-29
2023/04/11 00:21:15;;;;;;;5.60;3.90;;;;;;;;;;107848;272;42942;-29
2023/04/11 00:23:50;;;;;;;5.60;4.00;;;;;;;;;;107844;272;41920;-29
2023/04/11 00:26:25;;;;;;;5.50;4.10;;;;;;;;;;107711;279;175695;-29
2023/04/11 00:28:59;;;;;;;5.30;3.80;;;;;;;;;;107812;279;39906;-29
2023/04/11 00:31:35;;;;;;;5.40;4.10;;;;;;;;;;107852;272;42632;-29
2023/04/11 00:34:11;;;;;;;6.00;4.20;;;;;;;;;;107805;272;43591;-29
2023/04/11 00:36:45;;;;;;;5.80;4.00;;;;;;;;;;107816;272;38795;-29
2023/04/11 00:39:21;;;;;;;5.60;4.00;;;;;;;;;;107802;272;40872;-29
2023/04/11 00:42:07;;;;;;;6.00;3.90;;;;;;;;;;107840;272;44032;-29
2023/04/11 00:44:43;;;;;;;5.30;3.90;;;;;;;;;;107865;279;42513;-29
2023/04/11 00:47:20;;;;;;;5.40;4.00;;;;;;;;;;107824;272;38893;-29
2023/04/11 00:49:55;;;;;;;5.80;4.00;;;;;;;;;;107794;271;39779;-29
2023/04/11 00:52:31;;;;;;;6.00;4.00;;;;;;;;;;107717;272;177388;-29
2023/04/11 00:55:08;;;;;;;5.60;4.00;;;;;;;;;;107833;279;42379;-29
2023/04/11 00:57:42;;;;;;;6.00;4.20;;;;;;;;;;107866;272;38850;-29
2023/04/11 01:00:18;;;;;;;5.40;3.90;;;;;;;;;;107803;272;39776;-29
2023/04/11 01:02:53;;;;;;;5.40;3.90;;;;;;;;;;107866;279;42857;-29
2023/04/11 01:05:33;;;;;;;5.50;4.00;;;;;;;;;;107842;271;42157;-29
2023/04/11 01:08:08;;;;;;;5.90;4.00;;;;;;;;;;107824;272;38714;-29
2023/04/11 01:10:43;;;;;;;5.60;3.90;;;;;;;;;;107823;279;39675;-29
2023/04/11 01:13:17;;;;;;;5.60;4.10;;;;;;;;;;107871;271;42861;-29
2023/04/11 01:15:52;;;;;;;5.30;3.90;;;;;;;;;;107744;279;175653;-29
2023/04/11 01:18:29;;;;;;;5.40;3.70;;;;;;;;;;107850;272;38779;-29
2023/04/11 01:21:04;;;;;;;5.50;4.10;;;;;;;;;;107792;271;39631;-29
2023/04/11 01:23:37;;;;;;;5.50;3.90;;;;;;;;;;107849;279;44172;-29
2023/04/11 01:26:13;;;;;;;5.70;4.00;;;;;;;;;;107870;272;43302;-29
2023/04/11 01:28:48;;;;;;;5.50;4.00;;;;;;;;;;107858;279;38775;-29
2023/04/11 01:31:24;;;;;;;5.90;4.00;;;;;;;;;;107782;272;41148;-29
2023/04/11 01:34:00;;;;;;;5.90;4.30;;;;;;;;;;107845;272;42994;-29
2023/04/11 01:36:35;;;;;;;5.50;3.90;;;;;;;;;;107887;272;43742;-29
2023/04/11 01:39:13;;;;;;;5.70;4.10;;;;;;;;;;107503;273;418500;-29
2023/04/11 01:41:50;;;;;;;5.70;4.20;;;;;;;;;;107768;279;47133;-29
2023/04/11 01:44:26;;;;;;;5.30;4.10;;;;;;;;;;107846;272;44015;-29
2023/04/11 01:47:02;;;;;;;5.20;3.80;;;;;;;;;;107825;271;42161;-29
2023/04/11 01:49:40;;;;;;;5.80;4.00;;;;;;;;;;107832;272;40335;-29
2023/04/11 01:52:17;;;;;;;5.40;4.30;;;;;;;;;;107847;271;46199;-29
2023/04/11 01:54:53;;;;;;;5.60;4.10;;;;;;;;;;107833;279;43010;-29
2023/04/11 01:57:29;;;;;;;6.50;4.00;;;;;;;;;;107835;275;42270;-29
2023/04/11 02:00:09;;;;;;;6.40;4.40;;;;;;;;;;107787;272;38778;-29
2023/04/11 02:02:45;;;;;;;6.10;4.00;;;;;;;;;;107833;275;40898;-29
2023/04/11 02:05:20;;;;;;;6.10;4.20;;;;;;;;;;107800;271;42676;-29
2023/04/11 02:07:59;;;;;;;5.80;4.30;;;;;;;;;;107811;279;43305;-29
2023/04/11 02:10:34;;;;;;;6.00;4.30;;;;;;;;;;107790;271;39901;-29
2023/04/11 02:13:08;;;;;;;6.20;4.30;;;;;;;;;;107838;272;39794;-29
2023/04/11 02:15:43;;;;;;;6.20;4.20;;;;;;;;;;107843;271;42957;-29
2023/04/11 02:18:19;;;;;;;6.20;4.50;;;;;;;;;;107861;271;42260;-29
2023/04/11 02:20:57;;;;;;;5.90;4.40;;;;;;;;;;107822;279;40052;-29
2023/04/11 02:23:33;;;;;;;5.60;4.20;;;;;;;;;;107814;272;41100;-29
2023/04/11 02:26:07;;;;;;;6.00;4.60;;;;;;;;;;107769;273;42982;-29
2023/04/11 02:28:44;;;;;;;6.30;4.60;;;;;;;;;;107845;271;43451;-29
2023/04/11 02:31:22;;;;;;;5.80;4.40;;;;;;;;;;107789;279;40025;-29
2023/04/11 02:33:58;;;;;;;5.70;4.50;;;;;;;;;;107850;279;39846;-29
2023/04/11 02:36:34;;;;;;;5.80;4.30;;;;;;;;;;107718;279;175679;-29
2023/04/11 02:39:10;;;;;;;6.10;4.60;;;;;;;;;;107826;271;43296;-29
2023/04/11 02:41:45;;;;;;;6.40;4.40;;;;;;;;;;107808;272;38801;-29
2023/04/11 02:44:25;;;;;;;6.90;4.50;;;;;;;;;;107851;279;40767;-29
2023/04/11 02:47:01;;;;;;;6.20;4.50;;;;;;;;;;107838;272;43148;-29
2023/04/11 02:49:36;;;;;;;6.20;4.50;;;;;;;;;;107836;279;42370;-29
2023/04/11 02:52:12;;;;;;;5.90;4.60;;;;;;;;;;107806;279;38929;-29
2023/04/11 02:54:49;;;;;;;6.20;4.70;;;;;;;;;;107836;272;39863;-29
2023/04/11 02:57:26;;;;;;;6.30;4.70;;;;;;;;;;107880;279;43155;-29
2023/04/11 03:00:06;;;;;;;6.20;4.50;;;;;;;;;;107826;279;42254;-29
2023/04/11 03:02:40;;;;;;;5.90;4.70;;;;;;;;;;107841;279;38756;-29
2023/04/11 03:05:16;;;;;;;7.00;4.90;;;;;;;;;;107849;276;40905;-29
2023/04/11 03:07:53;;;;;;;6.90;4.90;;;;;;;;;;107866;272;43009;-29
2023/04/11 03:10:29;;;;;;;6.40;4.90;;;;;;;;;;107837;279;42127;-29
2023/04/11 03:13:04;;;;;;;6.40;4.90;;;;;;;;;;107820;272;38813;-29
2023/04/11 03:15:41;;;;;;;6.40;4.90;;;;;;;;;;107817;275;39480;-29
2023/04/11 03:18:16;;;;;;;6.50;4.60;;;;;;;;;;107882;279;42911;-29
2023/04/11 03:20:51;;;;;;;6.40;5.00;;;;;;;;;;107837;272;42147;-29
2023/04/11 03:23:28;;;;;;;6.70;4.80;;;;;;;;;;107795;277;38802;-29
2023/04/11 03:26:02;;;;;;;6.10;4.60;;;;;;;;;;107869;275;40652;-29
2023/04/11 03:28:37;;;;;;;6.10;4.60;;;;;;;;;;107857;272;42939;-29
2023/04/11 03:31:16;;;;;;;5.80;4.60;;;;;;;;;;107829;272;42266;-29
2023/04/11 03:33:52;;;;;;;6.10;4.80;;;;;;;;;;107806;272;38902;-29
2023/04/11 03:36:28;;;;;;;6.60;5.10;;;;;;;;;;107831;272;39954;-29
2023/04/11 03:39:04;;;;;;;6.30;5.00;;;;;;;;;;107849;272;43020;-28
2023/04/11 03:41:38;;;;;;;5.80;4.50;;;;;;;;;;107856;272;42106;-28
2023/04/11 03:44:12;;;;;;;5.90;4.70;;;;;;;;;;107806;279;38890;-28
2023/04/11 03:46:46;;;;;;;6.10;4.70;;;;;;;;;;107857;277;39795;-28
2023/04/11 03:49:22;;;;;;;6.50;5.00;;;;;;;;;;107818;279;42978;-28
2023/04/11 03:51:56;;;;;;;6.90;4.80;;;;;;;;;;107694;279;175693;-28
2023/04/11 03:54:29;;;;;;;6.30;4.90;;;;;;;;;;107952;272;44670;-28
2023/04/11 03:57:05;;;;;;;6.30;4.90;;;;;;;;;;107842;272;39866;-28
2023/04/11 03:59:43;;;;;;;6.60;4.70;;;;;;;;;;107813;279;42890;-28
2023/04/11 04:02:21;;;;;;;6.50;4.90;;;;;;;;;;107814;279;42150;-29
2023/04/11 04:04:57;;;;;;;6.60;5.00;;;;;;;;;;107820;272;46081;-29
2023/04/11 04:07:34;;;;;;;6.30;4.80;;;;;;;;;;107834;272;39717;-29
2023/04/11 04:10:09;;;;;;;6.30;4.80;;;;;;;;;;107833;279;43119;-29
2023/04/11 04:12:45;;;;;;;6.20;4.80;;;;;;;;;;107790;272;42251;-29
2023/04/11 04:15:20;;;;;;;6.40;4.80;;;;;;;;;;107850;279;39938;-29
2023/04/11 04:17:56;;;;;;;6.10;5.00;;;;;;;;;;107858;272;39886;-29
2023/04/11 04:20:33;;;;;;;6.20;4.90;;;;;;;;;;107830;272;42972;-29
2023/04/11 04:23:08;;;;;;;6.90;5.00;;;;;;;;;;107778;279;42421;-29
2023/04/11 04:25:44;;;;;;;6.60;5.10;;;;;;;;;;107814;279;38972;-29
2023/04/11 04:28:21;;;;;;;6.10;4.60;;;;;;;;;;107858;279;39744;-29
2023/04/11 04:30:57;;;;;;;6.50;5.10;;;;;;;;;;107837;272;42841;-29
2023/04/11 04:33:34;;;;;;;6.40;4.80;;;;;;;;;;107766;281;41899;-29
2023/04/11 04:36:11;;;;;;;6.20;4.80;;;;;;;;;;107840;279;38774;-29
2023/04/11 04:38:47;;;;;;;6.10;4.60;;;;;;;;;;107816;272;39720;-29
2023/04/11 04:41:24;;;;;;;6.10;4.90;;;;;;;;;;107826;272;42985;-29
2023/04/11 04:43:59;;;;;;;6.50;4.70;;;;;;;;;;107771;272;42385;-29
2023/04/11 04:46:35;;;;;;;5.80;4.60;;;;;;;;;;107836;279;38741;-29
2023/04/11 04:49:12;;;;;;;6.20;4.60;;;;;;;;;;107853;279;39507;-29
2023/04/11 04:51:51;;;;;;;6.30;4.90;;;;;;;;;;107827;277;42905;-29
2023/04/11 04:54:27;;;;;;;6.10;5.00;;;;;;;;;;107790;271;42203;-29
2023/04/11 04:57:03;;;;;;;6.10;4.70;;;;;;;;;;107816;279;38797;-29
2023/04/11 04:59:40;;;;;;;6.70;5.20;;;;;;;;;;107847;272;39841;-29
2023/04/11 05:02:15;;;;;;;6.20;4.80;;;;;;;;;;107823;272;42915;-29
2023/04/11 05:04:52;;;;;;;6.30;4.70;;;;;;;;;;107815;272;42153;-29
2023/04/11 05:07:32;;;;;;;6.40;4.80;;;;;;;;;;107840;279;38810;-29
2023/04/11 05:10:08;;;;;;;6.30;4.90;;;;;;;;;;107830;272;39716;-29
2023/04/11 05:12:45;;;;;;;6.40;5.20;;;;;;;;;;107856;279;42896;-29
2023/04/11 05:15:22;;;;;;;6.40;5.00;;;;;;;;;;107801;279;41872;-29
2023/04/11 05:17:57;;;;;;;6.00;4.80;;;;;;;;;;107855;272;38738;-29
2023/04/11 05:20:34;;;;;;;5.80;4.60;;;;;;;;;;107834;272;39697;-29
2023/04/11 05:23:10;;;;;;;5.70;4.40;;;;;;;;;;107855;279;42984;-29
2023/04/11 05:25:46;;;;;;;5.90;4.80;;;;;;;;;;107788;271;42424;-28
2023/04/11 05:28:19;;;;;;;7.30;4.60;;;;;;;;;;107857;279;38854;-28
2023/04/11 05:30:57;;;;;;;6.20;4.60;;;;;;;;;;107823;271;39712;-28
2023/04/11 05:33:35;;;;;;;6.30;4.90;;;;;;;;;;107844;277;42880;-28
2023/04/11 05:36:12;;;;;;;5.90;4.70;;;;;;;;;;107830;271;43492;-28
2023/04/11 05:38:47;;;;;;;6.80;5.00;;;;;;;;;;107862;276;38762;-28
2023/04/11 05:41:21;;;;;;;6.80;4.90;;;;;;;;;;107844;275;39822;-28
2023/04/11 05:43:57;;;;;;;6.60;4.90;;;;;;;;;;107827;272;42682;-28
2023/04/11 05:46:36;;;;;;;7.20;5.10;;;;;;;;;;107810;271;42166;-28
2023/04/11 05:49:14;;;;;;;7.60;4.90;;;;;;;;;;107817;279;38738;-28
2023/04/11 05:51:51;;;;;;;8.00;5.20;;;;;;;;;;107834;279;39911;-28
2023/04/11 05:54:38;;;;;;;7.80;5.30;;;;;;;;;;107849;271;42938;-28
2023/04/11 05:57:16;;;;;;;7.10;5.80;;;;;;;;;;107771;279;47902;-28
2023/04/11 05:59:51;;;;;;;7.30;5.50;;;;;;;;;;107718;279;175618;-28
2023/04/11 06:02:26;;;;;;;7.10;5.50;;;;;;;;;;107821;275;39925;-29
2023/04/11 06:05:03;;;;;;;7.70;5.30;;;;;;;;;;107822;272;43248;-29
2023/04/11 06:07:39;;;;;;;7.30;5.30;;;;;;;;;;107815;271;48469;-29
2023/04/11 06:10:14;;;;;;;7.50;5.50;;;;;;;;;;107853;271;38790;-29
2023/04/11 06:12:49;;;;;;;7.80;5.50;;;;;;;;;;107860;272;39843;-29
2023/04/11 06:15:28;;;;;;;7.40;5.30;;;;;;;;;;107795;272;43012;-29
2023/04/11 06:18:02;;;;;;;7.50;5.40;;;;;;;;;;107803;279;48509;-29
2023/04/11 06:20:39;;;;;;;7.20;5.40;;;;;;;;;;107834;271;38681;-29
2023/04/11 06:23:16;;;;;;;7.50;5.50;;;;;;;;;;107841;271;39881;-29
2023/04/11 06:25:50;;;;;;;7.90;5.70;;;;;;;;;;107782;279;42984;-29
2023/04/11 06:28:25;;;;;;;6.90;5.40;;;;;;;;;;107842;272;41855;-29
2023/04/11 06:31:00;;;;;;;8.00;5.40;;;;;;;;;;107807;271;38821;-29
2023/04/11 06:33:36;;;;;;;7.70;5.60;;;;;;;;;;107835;279;40237;-29
2023/04/11 06:36:12;;;;;;;7.10;5.30;;;;;;;;;;107791;272;43010;-29
2023/04/11 06:38:49;;;;;;;8.00;5.40;;;;;;;;;;107867;279;42108;-29
2023/04/11 06:41:24;;;;;;;7.50;5.20;;;;;;;;;;107869;272;38860;-29
2023/04/11 06:43:59;;;;;;;7.50;5.30;;;;;;;;;;107876;279;39719;-29
2023/04/11 06:46:37;;;;;;;6.50;5.10;;;;;;;;;;107822;271;42730;-29
2023/04/11 06:49:12;;;;;;;8.30;5.60;;;;;;;;;;107871;279;42168;-29
2023/04/11 06:51:48;;;;;;;8.80;5.90;;;;;;;;;;107744;279;175255;-29
2023/04/11 06:54:24;;;;;;;8.30;6.00;;;;;;;;;;107838;279;40656;-29
2023/04/11 06:57:02;;;;;;;8.20;5.70;;;;;;;;;;107814;279;42884;-29
2023/04/11 06:59:38;;;;;;;9.20;6.20;;;;;;;;;;107831;278;43164;-29
2023/04/11 07:02:15;;;;;;;8.50;6.10;;;;;;;;;;107794;279;38615;-29
2023/04/11 07:04:51;;;;;;;8.40;6.00;;;;;;;;;;107815;279;41064;-29
2023/04/11 07:07:26;;;;;;;8.30;5.70;;;;;;;;;;107668;277;195968;-30
2023/04/11 07:10:00;;;;;;;9.30;5.70;;;;;;;;;;107815;279;42203;-29
2023/04/11 07:12:40;;;;;;;8.40;5.80;;;;;;;;;;107818;279;38835;-29
2023/04/11 07:15:15;;;;;;;7.80;5.70;;;;;;;;;;107781;279;38693;-29
2023/04/11 07:17:51;;;;;;;8.10;5.40;;;;;;;;;;107818;279;42873;-30
2023/04/11 07:20:25;;;;;;;8.00;5.90;;;;;;;;;;107838;279;42172;-29
2023/04/11 07:23:02;;;;;;;8.40;5.90;;;;;;;;;;107695;272;175556;-29
2023/04/11 07:25:38;;;;;;;8.30;5.60;;;;;;;;;;107852;279;39691;-28
2023/04/11 07:28:13;;;;;;;8.50;5.70;;;;;;;;;;107764;272;43041;-28
2023/04/11 07:30:50;;;;;;;8.00;5.90;;;;;;;;;;107836;279;42131;-29
2023/04/11 07:33:26;;;;;;;9.00;6.00;;;;;;;;;;107822;272;39944;-29
2023/04/11 07:36:00;;;;;;;8.00;5.70;;;;;;;;;;107828;272;40867;-29
2023/04/11 07:38:36;;;;;;;7.20;5.50;;;;;;;;;;107753;272;42812;-28
2023/04/11 07:41:11;;;;;;;7.70;5.40;;;;;;;;;;107828;272;42182;-28
2023/04/11 07:43:48;;;;;;;6.40;4.90;;;;;;;;;;107823;272;39881;-28
2023/04/11 07:46:25;;;;;;;8.50;5.30;;;;;;;;;;107808;279;41179;-28
2023/04/11 07:49:02;;;;;;;7.80;5.60;;;;;;;;;;107153;272;894380;-28
2023/04/11 07:51:38;;;;;;;7.50;5.30;;;;;;;;;;107911;280;43293;-28
2023/04/11 07:54:16;;;;;;;7.80;5.30;;;;;;;;;;107949;279;39371;-28
2023/04/11 07:56:50;;;;;;;7.00;5.10;;;;;;;;;;107908;271;39692;-28
2023/04/11 07:59:26;;;;;;;7.10;5.40;;;;;;;;;;107896;279;42976;-28
2023/04/11 08:02:06;;;;;;;8.70;6.00;;;;;;;;;;107877;271;42163;-28
2023/04/11 08:04:41;;;;;;;7.20;5.30;;;;;;;;;;107790;271;175554;-28
2023/04/11 08:07:17;;;;;;;8.50;6.20;;;;;;;;;;107871;271;41152;-29
2023/04/11 08:09:52;;;;;;;8.50;6.20;;;;;;;;;;107816;279;44092;-30
2023/04/11 08:12:28;;;;;;;8.50;6.50;;;;;;;;;;107909;280;42248;-28
2023/04/11 08:15:02;;;;;;;8.90;6.50;;;;;;;;;;107918;271;39978;-29
2023/04/11 08:17:39;;;;;;;8.20;6.40;;;;;;;;;;107889;279;39846;-28
2023/04/11 08:20:15;;;;;;;8.10;6.20;;;;;;;;;;108012;279;42882;-28
2023/04/11 08:22:50;;;;;;;7.80;6.00;;;;;;;;;;107543;260;308227;-29
2023/04/11 08:25:25;;;;;;;7.40;5.70;;;;;;;;;;107478;267;39029;-30
2023/04/11 08:28:00;;;;;;;7.40;5.80;;;;;;;;;;107624;284;40735;-29
2023/04/11 08:30:34;;;;;;;7.20;5.70;;;;;;;;;;107587;282;48515;-30
2023/04/11 08:33:08;;;;;;;7.80;5.50;;;;;;;;;;107628;277;44167;-29
2023/04/11 08:35:44;;;;;;;8.40;5.30;;;;;;;;;;107604;284;39075;-30
2023/04/11 08:38:20;;;;;;;8.40;5.70;;;;;;;;;;107625;277;39778;-29
2023/04/11 08:40:55;;;;;;;6.80;5.20;;;;;;;;;;107553;284;48627;-30
2023/04/11 08:43:30;;;;;;;8.00;5.80;;;;;;;;;;107615;277;42160;-30
2023/04/11 08:46:06;;;;;;;8.00;5.20;;;;;;;;;;107644;284;38766;-29
2023/04/11 08:48:41;;;;;;;7.30;5.20;;;;;;;;;;107622;282;39857;-30
2023/04/11 08:51:22;;;;;;;8.00;5.10;;;;;;;;;;107605;283;49063;-30
2023/04/11 08:53:59;;;;;;;7.80;5.60;;;;;;;;;;107598;283;42483;-30
2023/04/11 08:56:35;;;;;;;7.60;5.30;;;;;;;;;;107639;284;38841;-30
2023/04/11 08:59:11;;;;;;;7.40;5.50;;;;;;;;;;107624;277;39756;-29
2023/04/11 09:01:47;;;;;;;7.30;5.10;;;;;;;;;;107619;277;49093;-29
2023/04/11 09:04:22;;;;;;;7.00;5.20;;;;;;;;;;107621;277;42553;-29
2023/04/11 09:07:00;;;;;;;8.70;6.00;;;;;;;;;;107624;284;38928;-30
2023/04/11 09:09:38;;;;;;;8.30;6.10;;;;;;;;;;107554;277;39761;-30
2023/04/11 09:12:13;;;;;;;7.00;6.00;;;;;;;;;;107653;277;42937;-30
2023/04/11 09:14:50;;;;;;;6.80;5.60;;;;;;;;;;107603;277;42020;-30
2023/04/11 09:17:25;;;;;;;7.60;5.60;;;;;;;;;;107619;282;38973;-30
2023/04/11 09:20:21;;;;;;;6.40;5.30;;;;;;;;;;107599;284;39762;-30
2023/04/11 09:22:58;;;;;;;7.00;5.60;;;;;;;;;;107615;277;42927;-30
2023/04/11 09:25:46;;;;;;;6.70;5.60;;;;;;;;;;107632;277;42719;-30
2023/04/11 09:28:20;;;;;;;7.80;5.70;;;;;;;;;;107662;277;38846;-29
2023/04/11 09:30:56;;;;;;;7.50;5.80;;;;;;;;;;107576;277;39678;-30
2023/04/11 09:33:30;;;;;;;6.80;5.10;;;;;;;;;;107634;277;44041;-31
2023/04/11 09:36:19;;;;;;;6.50;4.80;;;;;;;;;;107616;284;42109;-31
2023/04/11 09:38:54;;;;;;;6.20;4.80;;;;;;;;;;107189;282;422317;-31
2023/04/11 09:41:36;;;;;;;7.40;5.30;;;;;;;;;;107579;282;39615;-30
2023/04/11 09:44:10;;;;;;;6.50;4.90;;;;;;;;;;107590;282;44121;-30
2023/04/11 09:47:00;;;;;;;6.10;4.50;;;;;;;;;;107640;282;42652;-30
2023/04/11 09:49:37;;;;;;;6.40;4.70;;;;;;;;;;107642;282;38760;-30
2023/04/11 09:52:11;;;;;;;6.20;4.50;;;;;;;;;;107614;282;40796;-30
2023/04/11 09:54:46;;;;;;;6.30;4.60;;;;;;;;;;107616;277;43964;-31
2023/04/11 09:57:23;;;;;;;5.80;4.20;;;;;;;;;;107633;282;42146;-30
2023/04/11 09:59:59;;;;;;;6.20;4.30;;;;;;;;;;107628;282;38773;-31
2023/04/11 10:02:34;;;;;;;6.00;4.00;;;;;;;;;;107592;284;40072;-30
2023/04/11 10:05:11;;;;;;;6.00;3.90;;;;;;;;;;107602;282;42753;-30
2023/04/11 10:07:55;;;;;;;5.90;3.90;;;;;;;;;;107624;277;42274;-29
2023/04/11 10:10:31;;;;;;;6.60;4.10;;;;;;;;;;107608;283;38592;-29
2023/04/11 10:13:38;;;;;;;6.70;4.00;;;;;;;;;;107585;282;46273;-29
2023/04/11 10:16:17;;;;;;;6.20;4.00;;;;;;;;;;107631;285;43368;-29
2023/04/11 10:19:24;;;;;;;6.20;3.70;;;;;;;;;;107593;282;42346;-29
2023/04/11 10:22:02;;;;;;;5.10;3.50;;;;;;;;;;107457;283;191825;-29
2023/04/11 10:24:40;;;;;;;6.40;3.80;;;;;;;;;;107622;277;40015;-29
2023/04/11 10:27:14;;;;;;;6.30;3.80;;;;;;;;;;107626;284;42981;-29
2023/04/11 10:29:55;;;;;;;6.00;3.50;;;;;;;;;;107638;277;42017;-29
2023/04/11 10:32:31;;;;;;;5.70;3.50;;;;;;;;;;107593;277;39902;-29
2023/04/11 10:35:25;;;;;;;6.60;3.60;;;;;;;;;;107642;282;39866;-29
2023/04/11 10:37:59;;;;;;;5.40;3.30;;;;;;;;;;107630;284;43969;-29
2023/04/11 10:40:33;;;;;;;5.50;3.70;;;;;;;;;;107608;277;42433;-30
2023/04/11 10:43:24;;;;;;;6.60;3.30;;;;;;;;;;107490;277;191889;-30
2023/04/11 10:46:23;;;;;;;5.90;3.50;;;;;;;;;;107549;277;175487;-30
2023/04/11 10:49:05;;;;;;;6.10;3.40;;;;;;;;;;107513;277;175509;-30
2023/04/11 10:51:36;;;;;;;;;;;;;;;;;;107625;277;42127;-31
2023/04/11 10:54:28;;;;;;;5.80;3.20;;;;;;;;;;107618;282;44957;-30
2023/04/11 10:57:01;;;;;;;5.30;3.10;;;;;;;;;;107669;282;40216;-30
2023/04/11 11:00:11;;;;;;;5.20;3.50;;;;;;;;;;107614;277;43215;-29
2023/04/11 11:02:44;;;;;;;5.10;3.20;;;;;;;;;;107591;277;42514;-29
2023/04/11 11:05:24;;;;;;;5.70;3.50;;;;;;;;;;107652;277;38869;-30
2023/04/11 11:07:57;;;;;;;5.70;3.10;;;;;;;;;;107514;284;39849;-30
2023/04/11 11:10:44;;;;;;;5.90;3.30;;;;;;;;;;107619;282;44205;-30
2023/04/11 11:13:19;;;;;;;5.30;3.50;;;;;;;;;;107592;283;42521;-30
2023/04/11 11:15:53;;;;;;;5.50;3.40;;;;;;;;;;107598;282;38907;-30
2023/04/11 11:18:26;;;;;;;6.70;3.70;;;;;;;;;;107618;277;39675;-30
2023/04/11 11:21:00;;;;;;;5.50;3.80;;;;;;;;;;107581;277;42907;-29
2023/04/11 11:23:33;;;;;;;5.40;3.80;;;;;;;;;;107539;277;43377;-29
2023/04/11 11:26:08;;;;;;;5.70;3.90;;;;;;;;;;107627;277;38933;-30
2023/04/11 11:28:50;;;;;;;5.10;3.50;;;;;;;;;;107633;282;40296;-30
2023/04/11 11:31:36;;;;;;;5.80;3.70;;;;;;;;;;107594;282;43475;-29
2023/04/11 11:34:11;;;;;;;6.00;3.50;;;;;;;;;;107688;277;42126;-29
2023/04/11 11:36:57;;;;;;;5.10;3.40;;;;;;;;;;107628;277;38966;-29
2023/04/11 11:39:34;;;;;;;5.40;3.70;;;;;;;;;;107474;284;175509;-30
2023/04/11 11:42:08;;;;;;;5.80;3.80;;;;;;;;;;107608;277;43727;-30
2023/04/11 11:44:41;;;;;;;6.10;4.00;;;;;;;;;;107574;282;41966;-30
2023/04/11 11:47:15;;;;;;;5.70;4.10;;;;;;;;;;107481;282;175503;-30
2023/04/11 11:49:53;;;;;;;5.70;4.00;;;;;;;;;;107623;277;39858;-30
2023/04/11 11:52:38;;;;;;;5.10;3.70;;;;;;;;;;107614;277;42956;-30
2023/04/11 11:55:35;;;;;;;4.90;3.60;;;;;;;;;;107571;277;175500;-30
2023/04/11 11:58:09;;;;;;;5.70;3.90;;;;;;;;;;107629;282;38782;-29
2023/04/11 12:00:43;;;;;;;5.90;3.80;;;;;;;;;;107630;282;39675;-31
2023/04/11 12:03:22;;;;;;;5.30;3.80;;;;;;;;;;107591;282;42830;-30
2023/04/11 12:05:57;;;;;;;6.30;3.80;;;;;;;;;;107613;285;42097;-30
2023/04/11 12:08:48;;;;;;;5.30;3.80;;;;;;;;;;107606;284;39230;-30
2023/04/11 12:11:24;;;;;;;5.60;3.90;;;;;;;;;;107551;285;40879;-30
2023/04/11 12:13:57;;;;;;;5.60;4.00;;;;;;;;;;107549;283;42893;-29
2023/04/11 12:16:31;;;;;;;5.90;4.10;;;;;;;;;;107607;277;43316;-29
2023/04/11 12:19:06;;;;;;;5.50;3.70;;;;;;;;;;107608;277;38786;-30
2023/04/11 12:21:40;;;;;;;5.70;4.00;;;;;;;;;;107617;277;40051;-29
2023/04/11 12:24:13;;;;;;;5.30;3.80;;;;;;;;;;107555;277;42952;-30
2023/04/11 12:26:47;;;;;;;5.40;3.80;;;;;;;;;;107601;277;42311;-29
2023/04/11 12:29:38;;;;;;;;;;;;;;;;;;107631;277;38796;-29
2023/04/11 12:32:11;;;;;;;5.90;3.70;;;;;;;;;;107606;282;40900;-29
2023/04/11 12:34:44;;;;;;;5.10;3.90;;;;;;;;;;107557;277;43007;-30
2023/04/11 12:37:18;;;;;;;5.00;3.60;;;;;;;;;;107606;277;42129;-30
2023/04/11 12:39:51;;;;;;;5.90;3.90;;;;;;;;;;107616;277;38881;-30
2023/04/11 12:42:25;;;;;;;8.10;4.50;;;;;;;;;;107621;277;39791;-29
2023/04/11 12:44:59;;;;;;;7.10;4.40;;;;;;;;;;107557;284;42932;-29
2023/04/11 12:47:33;;;;;;;7.10;4.30;;;;;;;;;;107586;277;42166;-30
2023/04/11 12:50:08;;;;;;;5.70;4.00;;;;;;;;;;107564;281;38829;-30
2023/04/11 12:52:42;;;;;;;5.30;3.80;;;;;;;;;;107604;282;39861;-30
2023/04/11 12:55:15;;;;;;;5.30;3.60;;;;;;;;;;107556;277;44163;-30
2023/04/11 12:57:48;;;;;;;5.50;3.80;;;;;;;;;;107619;277;42149;-30
2023/04/11 13:00:23;;;;;;;5.70;4.00;;;;;;;;;;107623;276;40032;-30
2023/04/11 13:02:57;;;;;;;6.10;4.20;;;;;;;;;;107616;276;39784;-30
2023/04/11 13:05:31;;;;;;;5.80;4.10;;;;;;;;;;107571;277;42917;-30
2023/04/11 13:08:05;;;;;;;5.70;4.10;;;;;;;;;;107625;276;42116;-30
2023/04/11 13:10:38;;;;;;;5.40;3.70;;;;;;;;;;107625;276;38796;-30
2023/04/11 13:13:11;;;;;;;6.10;4.00;;;;;;;;;;107587;277;40752;-30
2023/04/11 13:15:49;;;;;;;6.40;4.10;;;;;;;;;;107542;282;42857;-30
2023/04/11 13:18:22;;;;;;;6.30;4.00;;;;;;;;;;107579;282;42192;-30
2023/04/11 13:20:58;;;;;;;6.80;4.30;;;;;;;;;;107583;277;39063;-30
2023/04/11 13:23:31;;;;;;;6.50;4.50;;;;;;;;;;107617;283;39735;-30
2023/04/11 13:26:05;;;;;;;6.30;4.30;;;;;;;;;;107565;284;42676;-30
2023/04/11 13:28:39;;;;;;;6.00;4.00;;;;;;;;;;107500;277;175565;-30
2023/04/11 13:31:12;;;;;;;5.70;3.90;;;;;;;;;;107607;283;39951;-30
2023/04/11 13:33:46;;;;;;;6.60;4.10;;;;;;;;;;107624;282;39702;-30
2023/04/11 13:36:20;;;;;;;6.50;4.60;;;;;;;;;;107590;276;42835;-30
2023/04/11 13:38:54;;;;;;;6.80;4.30;;;;;;;;;;107603;277;42167;-30
2023/04/11 13:41:30;;;;;;;6.00;4.40;;;;;;;;;;107599;277;38881;-30
2023/04/11 13:44:04;;;;;;;6.70;4.20;;;;;;;;;;107595;277;39742;-30
2023/04/11 13:46:37;;;;;;;6.30;4.40;;;;;;;;;;107543;276;43161;-30
2023/04/11 13:49:10;;;;;;;6.80;4.20;;;;;;;;;;107580;284;42258;-30
2023/04/11 13:51:44;;;;;;;5.50;4.10;;;;;;;;;;107628;276;38743;-30
2023/04/11 13:54:17;;;;;;;5.80;4.10;;;;;;;;;;107601;276;39763;-30
2023/04/11 13:56:52;;;;;;;6.40;4.00;;;;;;;;;;107535;276;44042;-30
2023/04/11 13:59:26;;;;;;;5.30;4.00;;;;;;;;;;106946;284;891062;-29
2023/04/11 14:02:00;;;;;;;6.90;4.50;;;;;;;;;;107576;283;38546;-30
2023/04/11 14:04:33;;;;;;;6.40;4.50;;;;;;;;;;107584;277;39849;-29
2023/04/11 14:07:06;;;;;;;5.70;4.00;;;;;;;;;;107545;282;43038;-30
2023/04/11 14:09:42;;;;;;;5.80;4.40;;;;;;;;;;107601;282;42142;-30
2023/04/11 14:12:15;;;;;;;6.40;4.40;;;;;;;;;;107585;276;39805;-30
2023/04/11 14:14:48;;;;;;;6.30;4.50;;;;;;;;;;107585;282;39702;-30
2023/04/11 14:17:21;;;;;;;5.90;4.50;;;;;;;;;;107562;276;43092;-30
2023/04/11 14:19:55;;;;;;;6.30;4.20;;;;;;;;;;107613;277;42182;-30
2023/04/11 14:22:28;;;;;;;6.10;4.20;;;;;;;;;;107575;282;38894;-30
2023/04/11 14:25:04;;;;;;;6.20;4.30;;;;;;;;;;107622;277;40103;-31
2023/04/11 14:27:37;;;;;;;5.60;4.20;;;;;;;;;;107557;276;44098;-32
2023/04/11 14:30:14;;;;;;;6.00;4.20;;;;;;;;;;107578;284;43187;-31
2023/04/11 14:32:48;;;;;;;5.90;4.40;;;;;;;;;;107623;276;38827;-30
2023/04/11 14:35:22;;;;;;;6.80;4.60;;;;;;;;;;107594;284;39756;-30
2023/04/11 14:37:58;;;;;;;6.80;4.80;;;;;;;;;;107567;277;42911;-31
2023/04/11 14:40:32;;;;;;;6.70;4.50;;;;;;;;;;107609;276;42256;-31
2023/04/11 14:43:05;;;;;;;6.60;4.50;;;;;;;;;;107595;276;39848;-31
2023/04/11 14:45:39;;;;;;;6.20;4.70;;;;;;;;;;107618;282;39694;-31
2023/04/11 14:48:15;;;;;;;6.10;4.80;;;;;;;;;;107572;282;44051;-29
2023/04/11 14:50:53;;;;;;;6.90;5.20;;;;;;;;;;107577;277;43327;-29
2023/04/11 14:53:27;;;;;;;6.50;5.10;;;;;;;;;;107606;282;39938;-32
2023/04/11 14:56:03;;;;;;;6.50;5.00;;;;;;;;;;107609;277;40889;-31
2023/04/11 14:58:37;;;;;;;7.40;5.20;;;;;;;;;;107553;282;42903;-30
2023/04/11 15:01:10;;;;;;;6.40;5.00;;;;;;;;;;107623;283;42169;-31
2023/04/11 15:03:45;;;;;;;6.80;5.40;;;;;;;;;;107580;282;38808;-32
2023/04/11 15:06:18;;;;;;;6.30;4.90;;;;;;;;;;107637;276;39694;-32
2023/04/11 15:08:52;;;;;;;6.00;5.20;;;;;;;;;;107533;283;42904;-31
2023/04/11 15:11:26;;;;;;;6.10;4.90;;;;;;;;;;107630;282;42180;-31
2023/04/11 15:14:01;;;;;;;6.40;4.70;;;;;;;;;;107608;282;38767;-30
2023/04/11 15:16:35;;;;;;;6.50;5.20;;;;;;;;;;107585;282;39681;-31
2023/04/11 15:19:12;;;;;;;6.70;5.00;;;;;;;;;;107539;285;42994;-32
2023/04/11 15:21:47;;;;;;;6.00;4.80;;;;;;;;;;107623;276;42445;-32
2023/04/11 15:24:22;;;;;;;6.70;5.00;;;;;;;;;;107651;282;38795;-32
2023/04/11 15:26:58;;;;;;;7.20;4.80;;;;;;;;;;107625;284;39855;-32
2023/04/11 15:29:35;;;;;;;6.70;5.00;;;;;;;;;;107593;276;48771;-32
2023/04/11 15:32:10;;;;;;;6.70;4.90;;;;;;;;;;107518;284;175543;-32
2023/04/11 15:34:45;;;;;;;6.50;4.90;;;;;;;;;;107616;283;38999;-32
2023/04/11 15:37:21;;;;;;;6.10;4.80;;;;;;;;;;107498;283;175587;-32
2023/04/11 15:39:58;;;;;;;5.80;4.80;;;;;;;;;;107571;282;42924;-32